Fort Jefferson National Mon, Florida
Current Conditions -  °F | °C
As of 8:53 PM on Sunday 25 Jan 2015 (Local Time) from KNQX Reporting Station
Scattered Clouds Scattered Clouds  
Wind Chill: 63°   Ceiling: Unl
Heat Index: 63°   Visibility: 10mi
Dew Point: 54°   Wind: 3mph
Humidity: 72%   Direction: 300°WNW
Pressure: 30.07"   Gusts: NA
Location:  24.5796°N, 81.6849°W
Report Text: KNQX 260153Z 30003KT 10SM FEW035 SCT150 17/12 A3007 RMK AO2 SLP181 T01720122 $
Loading
Personal Weather Stations






























Interactive Weather Map New forecast layout! Learn more

10-Day Weather Forecast

Advertisements
Track Severe Weather on mobile